INFORMACIÓN METAR y TAF
METAR FOR LEAM
ADDS - METARS form results

(1022 UTC 25 August 2019)
Data provider http://aviationweather.gov/metar/data/
 
METAR text: LEAM 251000Z 08013KT 050V120 9999 FEW025 31/17 Q1016
Conditions at: LEAM (ALMERIA AIRPORT , ES) observed 1000 UTC 25 August 2019
Temperature: 31.0°C (88°F)
Dewpoint: 17.0°C (63°F) [RH = 43%]
Pressure (altimeter): 30.00 inches Hg (1016.0 mb)
Winds: from the E (80 degrees) at 15 MPH (13 knots; 6.7 m/s)
Visibility: 6 or more miles (10+ km)
Ceiling: at least 12,000 feet AGL
Clouds: few clouds at 2500 feet AGL
Weather: no significant weather observed at this time

METAR text: LEAM 250930Z 08012KT 050V120 9999 FEW025 30/17 Q1016
Conditions at: LEAM (ALMERIA AIRPORT , ES) observed 0930 UTC 25 August 2019
Temperature: 30.0°C (86°F)
Dewpoint: 17.0°C (63°F) [RH = 46%]
Pressure (altimeter): 30.00 inches Hg (1016.0 mb)
Winds: from the E (80 degrees) at 14 MPH (12 knots; 6.2 m/s)
Visibility: 6 or more miles (10+ km)
Ceiling: at least 12,000 feet AGL
Clouds: few clouds at 2500 feet AGL
Weather: no significant weather observed at this time

Forecast for: LEAM (ALMERIA AIRPORT , ES)
Text: TAF LEAM 250800Z 2509/2609 08014KT 9999 FEW020 TX32/2515Z TN24/2606Z
Forecast period: 0900 to 2100 UTC 25 August 2019
Forecast type: FROM: standard forecast or significant change
Winds: from the E (80 degrees) at 16 MPH (14 knots; 7.2 m/s)
Visibility: 6 or more miles 10+ km)
Ceiling: at least 12,000 feet AGL
Clouds: few clouds at 2000 feet AGL
Weather: no significant weather forecast for this period
Text: BECMG 2521/2601 01006KT
Forecast period: 2100 UTC 25 August 2019 to 0900 UTC 26 August 2019
Forecast type: BECOMING: Conditions expected to become as follows by 0100 UTC 26 August 2019
Winds: from the N (10 degrees) at 7 MPH (6 knots; 3.1 m/s)
Visibility: 6 or more miles 10+ km)
Ceiling: at least 12,000 feet AGL
Clouds: few clouds at 2000 feet AGL
Weather: no significant weather forecast for this period

 MAPA DE AEROPUERTO

 INFORMACIÓN DE PISTA
Pista 08 Longitud 10499 ft Ancho 148 ft
Elevación 26 ft Umbral desplazado 492 ft Rumbo de pista 73
Pista 26 Longitud 10499 ft Ancho 148 ft
Elevación 70 ft Umbral desplazado 0 ft Rumbo de pista 253

 FRECUANCIAS DEL AEROPUERTO
Tipo APP Nombre APP Frecuencia 118.35 MHZ
Tipo GND Nombre GND Frecuencia 121.7 MHZ
Tipo TWR Nombre TWR Frecuencia 118.35 MHZ

 RADIO AYUDAS DEL AEROPUERTO
Tipo NDB Nombre Almeria Frecuencia 284 KHZ
Tipo NDB Nombre Almeria Frecuencia 310 KHZ
Tipo VOR-DME Nombre Almeria Frecuencia 114100 KHZ



Powered by Virtual Airlines Manager [v2.6.2]